sensor_id;sensor_type;location;lat;lon;timestamp;temperature;humidity
21282;DHT22;10800;53.096;18.328;2022-12-07T00:01:49;2.90;99.90
21282;DHT22;10800;53.096;18.328;2022-12-07T00:12:59;2.90;99.90
21282;DHT22;10800;53.096;18.328;2022-12-07T00:18:13;2.80;99.90
21282;DHT22;10800;53.096;18.328;2022-12-07T00:23:21;2.80;99.90
21282;DHT22;10800;53.096;18.328;2022-12-07T00:28:40;2.80;99.90
21282;DHT22;10800;53.096;18.328;2022-12-07T00:34:14;2.80;99.90
21282;DHT22;10800;53.096;18.328;2022-12-07T00:39:29;2.70;99.90
21282;DHT22;10800;53.096;18.328;2022-12-07T00:44:37;2.80;99.90
21282;DHT22;10800;53.096;18.328;2022-12-07T00:50:11;2.80;99.90
21282;DHT22;10800;53.096;18.328;2022-12-07T00:55:51;2.80;99.90
21282;DHT22;10800;53.096;18.328;2022-12-07T01:01:24;2.80;99.90
21282;DHT22;10800;53.096;18.328;2022-12-07T01:07:09;2.80;99.90
21282;DHT22;10800;53.096;18.328;2022-12-07T01:12:25;2.80;99.90
21282;DHT22;10800;53.096;18.328;2022-12-07T01:17:54;2.70;99.90
21282;DHT22;10800;53.096;18.328;2022-12-07T01:23:31;2.70;99.90
21282;DHT22;10800;53.096;18.328;2022-12-07T01:28:54;2.70;99.90
21282;DHT22;10800;53.096;18.328;2022-12-07T01:34:22;2.70;99.90
21282;DHT22;10800;53.096;18.328;2022-12-07T01:39:52;2.70;99.90
21282;DHT22;10800;53.096;18.328;2022-12-07T01:45:40;2.80;99.90
21282;DHT22;10800;53.096;18.328;2022-12-07T01:50:52;2.80;99.90
21282;DHT22;10800;53.096;18.328;2022-12-07T01:56:20;2.80;99.90
21282;DHT22;10800;53.096;18.328;2022-12-07T02:01:52;2.80;99.90
21282;DHT22;10800;53.096;18.328;2022-12-07T02:07:08;2.70;99.90
21282;DHT22;10800;53.096;18.328;2022-12-07T02:12:41;2.70;99.90
21282;DHT22;10800;53.096;18.328;2022-12-07T02:35:11;2.80;99.90
21282;DHT22;10800;53.096;18.328;2022-12-07T02:46:25;2.80;99.90
21282;DHT22;10800;53.096;18.328;2022-12-07T02:51:32;2.80;99.90
21282;DHT22;10800;53.096;18.328;2022-12-07T02:56:50;2.80;99.90
21282;DHT22;10800;53.096;18.328;2022-12-07T03:02:10;2.80;99.90
21282;DHT22;10800;53.096;18.328;2022-12-07T03:13:07;2.80;99.90
21282;DHT22;10800;53.096;18.328;2022-12-07T03:18:39;2.90;99.90
21282;DHT22;10800;53.096;18.328;2022-12-07T03:23:46;2.90;99.90
21282;DHT22;10800;53.096;18.328;2022-12-07T03:29:15;3.00;99.90
21282;DHT22;10800;53.096;18.328;2022-12-07T03:34:52;3.00;99.90
21282;DHT22;10800;53.096;18.328;2022-12-07T03:45:24;3.00;99.90
21282;DHT22;10800;53.096;18.328;2022-12-07T03:50:41;3.10;99.90
21282;DHT22;10800;53.096;18.328;2022-12-07T03:55:47;3.10;99.90
21282;DHT22;10800;53.096;18.328;2022-12-07T04:00:54;3.10;99.90
21282;DHT22;10800;53.096;18.328;2022-12-07T04:06:00;3.20;99.90
21282;DHT22;10800;53.096;18.328;2022-12-07T04:11:09;3.20;99.90
21282;DHT22;10800;53.096;18.328;2022-12-07T04:16:14;3.20;99.90
21282;DHT22;10800;53.096;18.328;2022-12-07T04:21:24;3.10;99.90
21282;DHT22;10800;53.096;18.328;2022-12-07T04:26:31;3.20;99.90
21282;DHT22;10800;53.096;18.328;2022-12-07T04:31:41;3.10;99.90
21282;DHT22;10800;53.096;18.328;2022-12-07T04:37:08;3.10;99.90
21282;DHT22;10800;53.096;18.328;2022-12-07T04:42:37;3.10;99.90
21282;DHT22;10800;53.096;18.328;2022-12-07T04:47:45;3.00;99.90
21282;DHT22;10800;53.096;18.328;2022-12-07T04:52:55;3.00;99.90
21282;DHT22;10800;53.096;18.328;2022-12-07T04:58:03;3.00;99.90
21282;DHT22;10800;53.096;18.328;2022-12-07T05:03:52;3.00;99.90
21282;DHT22;10800;53.096;18.328;2022-12-07T05:09:07;3.00;99.90
21282;DHT22;10800;53.096;18.328;2022-12-07T05:14:54;2.90;99.90
21282;DHT22;10800;53.096;18.328;2022-12-07T05:20:07;2.90;99.90
21282;DHT22;10800;53.096;18.328;2022-12-07T05:25:24;2.80;99.90
21282;DHT22;10800;53.096;18.328;2022-12-07T05:30:32;2.70;99.90
21282;DHT22;10800;53.096;18.328;2022-12-07T05:35:50;2.70;99.90
21282;DHT22;10800;53.096;18.328;2022-12-07T05:41:29;2.60;99.90
21282;DHT22;10800;53.096;18.328;2022-12-07T05:46:51;2.60;99.90
21282;DHT22;10800;53.096;18.328;2022-12-07T05:52:05;2.50;99.90
21282;DHT22;10800;53.096;18.328;2022-12-07T05:57:42;2.50;99.90
21282;DHT22;10800;53.096;18.328;2022-12-07T06:02:58;2.40;99.90
21282;DHT22;10800;53.096;18.328;2022-12-07T06:08:37;2.40;99.90
21282;DHT22;10800;53.096;18.328;2022-12-07T06:14:14;2.30;99.90
21282;DHT22;10800;53.096;18.328;2022-12-07T06:19:25;2.30;99.90
21282;DHT22;10800;53.096;18.328;2022-12-07T06:24:40;2.20;99.90
21282;DHT22;10800;53.096;18.328;2022-12-07T06:29:50;2.20;99.90
21282;DHT22;10800;53.096;18.328;2022-12-07T06:35:15;2.20;99.90
21282;DHT22;10800;53.096;18.328;2022-12-07T06:40:51;2.10;99.90
21282;DHT22;10800;53.096;18.328;2022-12-07T06:45:58;2.10;99.90
21282;DHT22;10800;53.096;18.328;2022-12-07T06:51:10;2.10;99.90
21282;DHT22;10800;53.096;18.328;2022-12-07T06:56:51;2.10;99.90
21282;DHT22;10800;53.096;18.328;2022-12-07T07:02:08;2.00;99.90
21282;DHT22;10800;53.096;18.328;2022-12-07T07:07:18;2.00;99.90
21282;DHT22;10800;53.096;18.328;2022-12-07T07:12:36;1.90;99.90
21282;DHT22;10800;53.096;18.328;2022-12-07T07:17:49;1.90;99.90
21282;DHT22;10800;53.096;18.328;2022-12-07T07:23:05;1.80;99.90
21282;DHT22;10800;53.096;18.328;2022-12-07T07:34:26;1.80;99.90
21282;DHT22;10800;53.096;18.328;2022-12-07T07:40:04;1.80;99.90
21282;DHT22;10800;53.096;18.328;2022-12-07T07:45:47;1.80;99.90
21282;DHT22;10800;53.096;18.328;2022-12-07T07:57:05;1.90;99.90
21282;DHT22;10800;53.096;18.328;2022-12-07T08:02:39;1.90;99.90
21282;DHT22;10800;53.096;18.328;2022-12-07T08:07:53;2.00;99.90
21282;DHT22;10800;53.096;18.328;2022-12-07T08:13:28;2.10;99.90
21282;DHT22;10800;53.096;18.328;2022-12-07T08:18:44;2.00;99.90
21282;DHT22;10800;53.096;18.328;2022-12-07T08:24:07;2.10;99.90
21282;DHT22;10800;53.096;18.328;2022-12-07T08:29:32;2.20;99.90
21282;DHT22;10800;53.096;18.328;2022-12-07T08:35:19;2.30;99.90
21282;DHT22;10800;53.096;18.328;2022-12-07T08:47:30;2.40;99.90
21282;DHT22;10800;53.096;18.328;2022-12-07T08:53:09;2.50;99.90
21282;DHT22;10800;53.096;18.328;2022-12-07T08:59:14;2.50;99.90
21282;DHT22;10800;53.096;18.328;2022-12-07T09:05:02;2.60;99.90
21282;DHT22;10800;53.096;18.328;2022-12-07T09:23:05;2.60;99.90
21282;DHT22;10800;53.096;18.328;2022-12-07T10:03:47;2.90;99.90
21282;DHT22;10800;53.096;18.328;2022-12-07T10:09:20;3.00;99.90
21282;DHT22;10800;53.096;18.328;2022-12-07T10:22:17;3.20;99.90
21282;DHT22;10800;53.096;18.328;2022-12-07T10:28:18;3.20;99.90
21282;DHT22;10800;53.096;18.328;2022-12-07T10:33:57;3.10;99.90
21282;DHT22;10800;53.096;18.328;2022-12-07T10:39:21;3.10;99.90
21282;DHT22;10800;53.096;18.328;2022-12-07T10:45:15;3.10;99.90
21282;DHT22;10800;53.096;18.328;2022-12-07T10:51:30;3.10;99.90
21282;DHT22;10800;53.096;18.328;2022-12-07T11:43:32;3.00;99.90
21282;DHT22;10800;53.096;18.328;2022-12-07T11:49:04;3.00;99.90
21282;DHT22;10800;53.096;18.328;2022-12-07T11:54:18;3.00;99.90
21282;DHT22;10800;53.096;18.328;2022-12-07T11:59:31;3.00;99.90
21282;DHT22;10800;53.096;18.328;2022-12-07T12:05:12;2.90;99.90
21282;DHT22;10800;53.096;18.328;2022-12-07T12:10:16;2.90;99.90
21282;DHT22;10800;53.096;18.328;2022-12-07T12:15:47;2.90;99.90
21282;DHT22;10800;53.096;18.328;2022-12-07T12:20:50;2.90;99.90
21282;DHT22;10800;53.096;18.328;2022-12-07T12:26:13;2.90;99.90
21282;DHT22;10800;53.096;18.328;2022-12-07T12:43:39;2.90;99.90
21282;DHT22;10800;53.096;18.328;2022-12-07T12:48:46;2.80;99.90
21282;DHT22;10800;53.096;18.328;2022-12-07T12:54:24;2.90;99.90
21282;DHT22;10800;53.096;18.328;2022-12-07T13:10:44;2.80;99.90
21282;DHT22;10800;53.096;18.328;2022-12-07T13:26:39;2.80;99.90
21282;DHT22;10800;53.096;18.328;2022-12-07T13:31:56;2.70;99.90
21282;DHT22;10800;53.096;18.328;2022-12-07T13:37:30;2.80;99.90
21282;DHT22;10800;53.096;18.328;2022-12-07T13:43:03;2.70;99.90
21282;DHT22;10800;53.096;18.328;2022-12-07T13:48:35;2.70;99.90
21282;DHT22;10800;53.096;18.328;2022-12-07T13:53:59;2.60;99.90
21282;DHT22;10800;53.096;18.328;2022-12-07T13:59:35;2.60;99.90
21282;DHT22;10800;53.096;18.328;2022-12-07T14:04:49;2.50;99.90
21282;DHT22;10800;53.096;18.328;2022-12-07T14:10:03;2.50;99.90
21282;DHT22;10800;53.096;18.328;2022-12-07T14:15:22;2.50;99.90
21282;DHT22;10800;53.096;18.328;2022-12-07T14:20:32;2.50;99.90
21282;DHT22;10800;53.096;18.328;2022-12-07T14:26:18;2.40;99.90
21282;DHT22;10800;53.096;18.328;2022-12-07T14:31:24;2.30;99.90
21282;DHT22;10800;53.096;18.328;2022-12-07T14:36:53;2.30;99.90
21282;DHT22;10800;53.096;18.328;2022-12-07T14:42:07;2.40;99.90
21282;DHT22;10800;53.096;18.328;2022-12-07T14:47:12;2.30;99.90
21282;DHT22;10800;53.096;18.328;2022-12-07T14:52:25;2.30;99.90
21282;DHT22;10800;53.096;18.328;2022-12-07T14:57:34;2.30;99.90
21282;DHT22;10800;53.096;18.328;2022-12-07T15:02:41;2.30;99.90
21282;DHT22;10800;53.096;18.328;2022-12-07T15:07:49;2.30;99.90
21282;DHT22;10800;53.096;18.328;2022-12-07T15:12:57;2.40;99.90
21282;DHT22;10800;53.096;18.328;2022-12-07T15:18:04;2.30;99.90
21282;DHT22;10800;53.096;18.328;2022-12-07T15:23:11;2.30;99.90
21282;DHT22;10800;53.096;18.328;2022-12-07T15:28:16;2.30;99.90
21282;DHT22;10800;53.096;18.328;2022-12-07T15:33:22;2.30;99.90
21282;DHT22;10800;53.096;18.328;2022-12-07T15:38:27;2.20;99.90
21282;DHT22;10800;53.096;18.328;2022-12-07T15:43:36;2.20;99.90
21282;DHT22;10800;53.096;18.328;2022-12-07T15:49:00;2.20;99.90
21282;DHT22;10800;53.096;18.328;2022-12-07T15:54:05;2.20;99.90
21282;DHT22;10800;53.096;18.328;2022-12-07T15:59:11;2.20;99.90
21282;DHT22;10800;53.096;18.328;2022-12-07T16:04:16;2.20;99.90
21282;DHT22;10800;53.096;18.328;2022-12-07T16:09:21;2.20;99.90
21282;DHT22;10800;53.096;18.328;2022-12-07T16:14:26;2.20;99.90
21282;DHT22;10800;53.096;18.328;2022-12-07T16:19:32;2.20;99.90
21282;DHT22;10800;53.096;18.328;2022-12-07T16:24:38;2.20;99.90
21282;DHT22;10800;53.096;18.328;2022-12-07T16:29:43;2.20;99.90
21282;DHT22;10800;53.096;18.328;2022-12-07T16:34:49;2.20;99.90
21282;DHT22;10800;53.096;18.328;2022-12-07T16:39:54;2.20;99.90
21282;DHT22;10800;53.096;18.328;2022-12-07T16:44:59;2.20;99.90
21282;DHT22;10800;53.096;18.328;2022-12-07T16:50:06;2.20;99.90
21282;DHT22;10800;53.096;18.328;2022-12-07T16:55:12;2.10;99.90
21282;DHT22;10800;53.096;18.328;2022-12-07T17:00:17;2.00;99.90
21282;DHT22;10800;53.096;18.328;2022-12-07T17:05:23;1.80;99.90
21282;DHT22;10800;53.096;18.328;2022-12-07T17:10:29;1.80;99.90
21282;DHT22;10800;53.096;18.328;2022-12-07T17:15:34;1.80;99.90
21282;DHT22;10800;53.096;18.328;2022-12-07T17:20:40;1.70;99.90
21282;DHT22;10800;53.096;18.328;2022-12-07T17:25:45;1.70;99.90
21282;DHT22;10800;53.096;18.328;2022-12-07T17:30:50;1.70;99.90
21282;DHT22;10800;53.096;18.328;2022-12-07T17:35:56;1.70;99.90
21282;DHT22;10800;53.096;18.328;2022-12-07T17:41:12;1.70;99.90
21282;DHT22;10800;53.096;18.328;2022-12-07T17:46:19;1.70;99.90
21282;DHT22;10800;53.096;18.328;2022-12-07T17:51:29;1.80;99.90
21282;DHT22;10800;53.096;18.328;2022-12-07T17:57:02;1.80;99.90
21282;DHT22;10800;53.096;18.328;2022-12-07T18:02:09;1.80;99.90
21282;DHT22;10800;53.096;18.328;2022-12-07T18:07:16;1.70;99.90
21282;DHT22;10800;53.096;18.328;2022-12-07T18:12:24;1.70;99.90
21282;DHT22;10800;53.096;18.328;2022-12-07T18:17:29;1.70;99.90
21282;DHT22;10800;53.096;18.328;2022-12-07T18:22:35;1.60;99.90
21282;DHT22;10800;53.096;18.328;2022-12-07T18:27:42;1.60;99.90
21282;DHT22;10800;53.096;18.328;2022-12-07T18:32:54;1.60;99.90
21282;DHT22;10800;53.096;18.328;2022-12-07T18:37:59;1.60;99.90
21282;DHT22;10800;53.096;18.328;2022-12-07T18:43:16;1.60;99.90
21282;DHT22;10800;53.096;18.328;2022-12-07T18:48:28;1.60;99.90
21282;DHT22;10800;53.096;18.328;2022-12-07T18:53:39;1.60;99.90
21282;DHT22;10800;53.096;18.328;2022-12-07T18:58:53;1.60;99.90
21282;DHT22;10800;53.096;18.328;2022-12-07T19:04:18;1.50;99.90
21282;DHT22;10800;53.096;18.328;2022-12-07T19:09:42;1.50;99.90
21282;DHT22;10800;53.096;18.328;2022-12-07T19:14:48;1.40;99.90
21282;DHT22;10800;53.096;18.328;2022-12-07T19:20:11;1.30;99.90
21282;DHT22;10800;53.096;18.328;2022-12-07T19:25:23;1.20;99.90
21282;DHT22;10800;53.096;18.328;2022-12-07T19:30:31;1.20;99.90
21282;DHT22;10800;53.096;18.328;2022-12-07T19:36:00;1.10;99.90
21282;DHT22;10800;53.096;18.328;2022-12-07T19:41:34;1.10;99.90
21282;DHT22;10800;53.096;18.328;2022-12-07T19:46:48;1.00;99.90
21282;DHT22;10800;53.096;18.328;2022-12-07T19:52:03;0.90;99.90
21282;DHT22;10800;53.096;18.328;2022-12-07T19:57:16;0.90;99.90
21282;DHT22;10800;53.096;18.328;2022-12-07T20:08:17;0.80;99.90
21282;DHT22;10800;53.096;18.328;2022-12-07T20:13:53;0.70;99.90
21282;DHT22;10800;53.096;18.328;2022-12-07T20:19:33;0.70;99.90
21282;DHT22;10800;53.096;18.328;2022-12-07T20:25:01;0.60;99.90
21282;DHT22;10800;53.096;18.328;2022-12-07T20:30:13;0.50;99.90
21282;DHT22;10800;53.096;18.328;2022-12-07T20:35:45;0.50;99.90
21282;DHT22;10800;53.096;18.328;2022-12-07T20:41:00;0.50;99.90
21282;DHT22;10800;53.096;18.328;2022-12-07T20:46:23;0.60;99.90
21282;DHT22;10800;53.096;18.328;2022-12-07T20:51:28;0.60;99.90
21282;DHT22;10800;53.096;18.328;2022-12-07T20:56:37;0.70;99.90
21282;DHT22;10800;53.096;18.328;2022-12-07T21:01:45;0.80;99.90
21282;DHT22;10800;53.096;18.328;2022-12-07T21:06:51;0.90;99.90
21282;DHT22;10800;53.096;18.328;2022-12-07T21:11:56;1.00;99.90
21282;DHT22;10800;53.096;18.328;2022-12-07T21:17:02;1.10;99.90
21282;DHT22;10800;53.096;18.328;2022-12-07T21:22:11;1.10;99.90
21282;DHT22;10800;53.096;18.328;2022-12-07T21:27:17;1.20;99.90
21282;DHT22;10800;53.096;18.328;2022-12-07T21:32:39;1.20;99.90
21282;DHT22;10800;53.096;18.328;2022-12-07T21:37:45;1.20;99.90
21282;DHT22;10800;53.096;18.328;2022-12-07T21:42:52;1.30;99.90
21282;DHT22;10800;53.096;18.328;2022-12-07T21:48:02;1.30;99.90
21282;DHT22;10800;53.096;18.328;2022-12-07T21:53:10;1.20;99.90
21282;DHT22;10800;53.096;18.328;2022-12-07T21:58:16;1.10;99.90
21282;DHT22;10800;53.096;18.328;2022-12-07T22:03:24;0.90;99.90
21282;DHT22;10800;53.096;18.328;2022-12-07T22:08:30;0.90;99.90
21282;DHT22;10800;53.096;18.328;2022-12-07T22:13:39;0.90;99.90
21282;DHT22;10800;53.096;18.328;2022-12-07T22:19:02;0.90;99.90
21282;DHT22;10800;53.096;18.328;2022-12-07T22:24:10;0.90;99.90
21282;DHT22;10800;53.096;18.328;2022-12-07T22:29:18;0.80;99.90
21282;DHT22;10800;53.096;18.328;2022-12-07T22:34:24;0.70;99.90
21282;DHT22;10800;53.096;18.328;2022-12-07T22:39:29;0.70;99.90
21282;DHT22;10800;53.096;18.328;2022-12-07T22:44:35;0.80;99.90
21282;DHT22;10800;53.096;18.328;2022-12-07T22:49:41;0.70;99.90
21282;DHT22;10800;53.096;18.328;2022-12-07T22:54:46;0.70;99.90
21282;DHT22;10800;53.096;18.328;2022-12-07T22:59:52;0.60;99.90
21282;DHT22;10800;53.096;18.328;2022-12-07T23:04:57;0.70;99.90
21282;DHT22;10800;53.096;18.328;2022-12-07T23:10:04;0.70;99.90
21282;DHT22;10800;53.096;18.328;2022-12-07T23:15:10;0.70;99.90
21282;DHT22;10800;53.096;18.328;2022-12-07T23:20:15;0.80;99.90
21282;DHT22;10800;53.096;18.328;2022-12-07T23:25:22;0.80;99.90
21282;DHT22;10800;53.096;18.328;2022-12-07T23:30:27;0.80;99.90
21282;DHT22;10800;53.096;18.328;2022-12-07T23:35:33;0.80;99.90
21282;DHT22;10800;53.096;18.328;2022-12-07T23:40:38;0.80;99.90
21282;DHT22;10800;53.096;18.328;2022-12-07T23:45:44;0.70;99.90
21282;DHT22;10800;53.096;18.328;2022-12-07T23:50:50;0.70;99.90
21282;DHT22;10800;53.096;18.328;2022-12-07T23:55:56;0.60;99.90
